createdAt,value
2019-04-28T06:43:52.306Z,99.90
2019-04-28T08:15:57.591Z,99.90
2019-04-28T08:23:11.259Z,99.90
2019-04-28T08:28:14.946Z,99.90
2019-04-28T08:34:04.607Z,99.70
2019-04-28T08:46:16.795Z,94.70
2019-04-28T08:51:27.402Z,93.00
2019-04-28T08:57:07.711Z,95.90
2019-04-28T09:02:49.540Z,97.50
2019-04-28T09:08:30.370Z,94.30
2019-04-28T09:13:45.532Z,91.10
2019-04-28T09:19:01.486Z,92.00
2019-04-28T09:24:17.791Z,92.60
2019-04-28T09:30:35.617Z,94.30
2019-04-28T09:35:38.081Z,96.30
2019-04-28T09:41:14.518Z,96.20
2019-04-28T09:46:28.958Z,95.30
2019-04-28T09:51:37.209Z,96.00
2019-04-28T09:56:57.942Z,97.40
2019-04-28T10:02:40.273Z,96.90
2019-04-28T10:07:45.001Z,97.70
2019-04-28T10:13:02.415Z,95.70
2019-04-28T10:18:11.473Z,92.10
2019-04-28T10:23:17.992Z,91.90
2019-04-28T10:28:25.412Z,84.20
2019-04-28T10:33:32.247Z,85.70
2019-04-28T10:38:47.167Z,81.40
2019-04-28T10:43:53.250Z,74.70
2019-04-28T10:49:00.330Z,73.30
2019-04-28T10:53:58.170Z,78.10
2019-04-28T10:59:04.709Z,82.30
2019-04-28T11:04:04.754Z,88.80
2019-04-28T11:09:31.508Z,93.00
2019-04-28T11:14:40.671Z,90.20
2019-04-28T11:19:38.756Z,85.70
2019-04-28T11:25:54.988Z,79.00
2019-04-28T11:31:07.092Z,74.70
2019-04-28T11:36:47.740Z,68.80
2019-04-28T11:42:26.901Z,64.20
2019-04-28T11:50:20.635Z,66.60
2019-04-28T11:55:28.529Z,63.10
2019-04-28T12:01:09.100Z,62.80
2019-04-28T12:06:19.756Z,64.00
2019-04-28T12:11:32.227Z,70.60
2019-04-28T12:17:04.783Z,75.60
2019-04-28T12:22:17.446Z,83.80
2019-04-28T12:27:24.222Z,84.30
2019-04-28T12:32:24.128Z,83.20
2019-04-28T12:37:41.453Z,83.00
2019-04-28T12:43:06.185Z,86.10
2019-04-28T12:48:26.323Z,88.90
2019-04-28T13:10:53.626Z,91.80
2019-04-28T13:18:21.090Z,99.90
2019-04-28T13:25:41.042Z,94.70
2019-04-28T13:31:49.736Z,90.50
2019-04-28T13:36:50.689Z,81.80
2019-04-28T13:45:53.453Z,78.90
2019-04-28T13:52:37.848Z,77.90
2019-04-28T13:57:22.657Z,80.10
2019-04-28T14:03:39.505Z,70.20
2019-04-28T14:12:09.062Z,65.40
2019-04-28T14:17:19.376Z,63.30
2019-04-28T14:24:14.571Z,69.10
2019-04-28T14:29:07.462Z,73.30
2019-04-28T14:34:08.596Z,75.00
2019-04-28T14:39:26.619Z,78.70
2019-04-28T14:49:07.401Z,78.60
2019-04-28T14:55:54.831Z,81.20
2019-04-28T15:00:59.073Z,76.80
2019-04-28T15:05:47.907Z,75.40
2019-04-28T15:10:42.669Z,77.80
2019-04-28T15:16:47.405Z,80.00
2019-04-28T15:21:49.957Z,83.40
2019-04-28T15:27:03.516Z,84.20
2019-04-28T15:32:20.150Z,84.80
2019-04-28T15:39:13.461Z,86.70
2019-04-28T15:44:07.639Z,87.30
2019-04-28T15:49:16.529Z,89.70
2019-04-28T15:54:33.656Z,90.20
2019-04-28T15:59:51.185Z,92.80
2019-04-28T16:04:59.418Z,95.40
2019-04-28T16:09:59.401Z,94.90
2019-04-28T16:15:08.793Z,95.40
2019-04-28T16:20:08.929Z,94.80
2019-04-28T16:25:27.252Z,94.70
2019-04-28T16:30:34.071Z,96.60
2019-04-28T16:35:42.273Z,94.90
2019-04-28T16:40:49.469Z,95.10
2019-04-28T16:45:59.490Z,94.20
2019-04-28T16:51:06.427Z,93.30
2019-04-28T16:56:15.047Z,93.40
2019-04-28T17:01:23.380Z,93.70
2019-04-28T17:06:15.836Z,93.30
2019-04-28T17:11:25.985Z,93.20
2019-04-28T17:16:34.872Z,93.70
2019-04-28T17:21:43.764Z,93.60
2019-04-28T17:26:53.174Z,93.00
2019-04-28T17:32:02.429Z,91.70
2019-04-28T17:37:11.314Z,91.40
2019-04-28T17:42:04.594Z,92.40
2019-04-28T17:47:24.211Z,90.70
2019-04-28T17:52:31.577Z,92.30
2019-04-28T17:58:05.636Z,92.70
2019-04-28T18:03:13.137Z,93.60
2019-04-28T18:27:15.510Z,94.50
2019-04-28T18:38:02.595Z,95.60
2019-04-28T18:43:46.256Z,97.40
2019-04-28T18:51:23.826Z,97.70
2019-04-28T20:30:40.152Z,98.10
